Главная страница
METAR-TAF:

METAR-TAF

Аэропорты :

Брённёйсунн, Норвегия

широта: 65-28N, долгота: 012-13E, высота над уровнем моря: 0 м

Текущие метеонаблюдения

Эта сводка был подготовлена 44 минут назад, в 09:50 UTC
Ветер 7 Узел от южный-юго-западный
Температура 15°C
Влажность 100%
Давление 1016 hPa
Видимость: 4000 м
Отдельные облака на высоте 300 фута
Рассеянная облачность на высоте 800 фута
небольшой дождь, Морось, дымка

METAR: ENBN 060950Z 21007KT 4000 -RADZ BR SCT003 BKN008 15/15 Q1016

Время: 12:34 (10:34 UTC)

Прогноз

Эта сводка был подготовлена 2 часа и 34 минут назад, в 08:00 UTC
Прогноз действительный с 06-го 09 UTC до 06-го 18 UTC
Ветер 8 Узел от южный
Видимость 10 км и более
небольшая облачность на высоте 500 фута
Рассеянная облачность на высоте 1500 фута
небольшой дождь
временами
С 06-го 09 UTC до 06-го 18 UTC
Видимость: 3000 м
Рассеянная облачность на высоте 600 фута
дождь, Морось

TAF: ENBN 060800Z 0609/0618 17008KT 9999 -RA FEW005 BKN015 TEMPO 0609/0618 3000 RADZ BKN006

Метеонаблюдения и прогнозы для более 4000 аэропортов (сводки METAR и TAF).

Имеющиеся станции представлены на карте желтыми и красными точками.

Чтобы увидеть название станции, наведите на нее мышь.

Затем щелкните, чтобы увидеть метеонаблюдения и метеопрогнозы.

Управление картой: чтобы увеличить масштаб, щелкните зеленые кнопки с черным крестиком; чтобы уменьшить масштаб, щелкните зеленую кнопку с тире; для просмотра соседних карт щелкайте зеленые стрелки.


METAR-TAF: